createdAt,value
2023-05-06T00:02:40.967Z,9.58
2023-05-06T00:05:43.488Z,9.57
2023-05-06T00:08:46.062Z,9.68
2023-05-06T00:11:47.689Z,9.72
2023-05-06T00:14:49.403Z,9.68
2023-05-06T00:17:51.192Z,9.77
2023-05-06T00:20:52.896Z,9.73
2023-05-06T00:23:54.437Z,9.88
2023-05-06T00:26:56.785Z,10.03
2023-05-06T00:29:58.428Z,9.96
2023-05-06T00:33:00.087Z,9.90
2023-05-06T00:36:01.766Z,9.69
2023-05-06T00:39:03.869Z,9.55
2023-05-06T00:42:06.732Z,9.43
2023-05-06T00:45:08.965Z,9.53
2023-05-06T00:48:10.828Z,9.61
2023-05-06T00:51:13.488Z,9.57
2023-05-06T00:54:15.300Z,9.47
2023-05-06T00:57:16.974Z,9.56
2023-05-06T01:00:20.264Z,9.48
2023-05-06T01:03:22.414Z,9.44
2023-05-06T01:06:35.791Z,9.35
2023-05-06T01:09:40.071Z,9.40
2023-05-06T01:12:51.770Z,9.43
2023-05-06T01:15:55.901Z,9.52
2023-05-06T01:19:00.344Z,9.43
2023-05-06T01:22:05.850Z,9.42
2023-05-06T01:25:07.892Z,9.51
2023-05-06T01:28:11.674Z,9.48
2023-05-06T01:31:20.675Z,9.46
2023-05-06T01:34:34.394Z,9.44
2023-05-06T01:37:47.963Z,9.41
2023-05-06T01:40:54.315Z,9.39
2023-05-06T01:43:59.254Z,9.28
2023-05-06T01:47:01.903Z,9.35
2023-05-06T01:50:04.608Z,9.39
2023-05-06T01:53:06.198Z,9.31
2023-05-06T01:56:07.881Z,9.30
2023-05-06T01:59:09.826Z,9.16
2023-05-06T02:02:11.521Z,9.28
2023-05-06T02:05:13.069Z,9.23
2023-05-06T02:08:14.661Z,9.31
2023-05-06T02:11:16.465Z,9.31
2023-05-06T02:14:18.035Z,9.39
2023-05-06T02:17:19.630Z,9.39
2023-05-06T02:20:21.300Z,9.27
2023-05-06T02:23:23.025Z,9.35
2023-05-06T02:26:24.605Z,9.47
2023-05-06T02:29:26.202Z,9.48
2023-05-06T02:32:27.860Z,9.30
2023-05-06T02:35:29.457Z,9.45
2023-05-06T02:38:31.295Z,9.48
2023-05-06T02:41:32.892Z,9.37
2023-05-06T02:44:34.458Z,9.36
2023-05-06T02:47:36.447Z,9.33
2023-05-06T02:50:38.043Z,9.33
2023-05-06T02:53:39.619Z,9.31
2023-05-06T02:56:43.233Z,9.37
2023-05-06T02:59:44.878Z,9.41
2023-05-06T03:02:46.481Z,9.29
2023-05-06T03:05:48.070Z,9.18
2023-05-06T03:08:49.644Z,9.28
2023-05-06T03:11:51.191Z,9.07
2023-05-06T03:14:52.758Z,9.15
2023-05-06T03:17:54.376Z,9.04
2023-05-06T03:20:56.006Z,9.06
2023-05-06T03:23:57.592Z,9.04
2023-05-06T03:26:59.153Z,8.92
2023-05-06T03:30:00.852Z,8.84
2023-05-06T03:33:02.573Z,8.90
2023-05-06T03:36:04.936Z,9.01
2023-05-06T03:39:06.541Z,8.94
2023-05-06T03:42:09.769Z,8.90
2023-05-06T03:45:11.900Z,9.08
2023-05-06T03:48:13.960Z,9.10
2023-05-06T03:51:15.886Z,9.01
2023-05-06T03:54:17.492Z,9.07
2023-05-06T03:57:19.075Z,9.12
2023-05-06T04:00:20.930Z,9.17
2023-05-06T04:03:22.602Z,9.27
2023-05-06T04:06:24.293Z,9.30
2023-05-06T04:09:25.856Z,9.42
2023-05-06T04:12:27.579Z,9.52
2023-05-06T04:15:32.007Z,9.69
2023-05-06T04:18:34.337Z,9.84
2023-05-06T04:21:36.021Z,9.97
2023-05-06T04:24:37.674Z,10.07
2023-05-06T04:27:39.287Z,10.15
2023-05-06T04:30:41.210Z,10.17
2023-05-06T04:33:43.052Z,10.33
2023-05-06T04:36:44.665Z,10.49
2023-05-06T04:39:47.054Z,10.68
2023-05-06T04:42:48.636Z,10.75
2023-05-06T04:45:50.360Z,10.98
2023-05-06T04:48:51.990Z,11.10
2023-05-06T04:51:53.550Z,11.31
2023-05-06T04:54:55.130Z,11.46
2023-05-06T04:57:56.672Z,11.58
2023-05-06T05:01:04.056Z,11.64
2023-05-06T05:04:05.627Z,11.80
2023-05-06T05:07:07.629Z,11.91
2023-05-06T05:10:10.484Z,12.02
2023-05-06T05:13:12.164Z,12.19
2023-05-06T05:16:13.890Z,12.00
2023-05-06T05:19:15.455Z,12.05
2023-05-06T05:22:17.064Z,12.20
2023-05-06T05:25:18.735Z,12.40
2023-05-06T05:28:20.284Z,12.56
2023-05-06T05:31:21.946Z,12.67
2023-05-06T05:34:23.586Z,12.94
2023-05-06T05:37:25.237Z,13.14
2023-05-06T05:40:26.918Z,13.34
2023-05-06T05:43:28.495Z,13.74
2023-05-06T05:46:30.362Z,13.95
2023-05-06T05:49:32.191Z,14.32
2023-05-06T05:52:33.906Z,14.68
2023-05-06T05:55:35.462Z,14.66
2023-05-06T05:58:37.000Z,14.88
2023-05-06T06:01:38.603Z,15.37
2023-05-06T06:04:40.241Z,15.55
2023-05-06T06:07:42.005Z,15.84
2023-05-06T06:10:43.570Z,16.00
2023-05-06T06:13:45.136Z,15.93
2023-05-06T06:16:46.816Z,16.05
2023-05-06T06:19:48.572Z,16.35
2023-05-06T06:22:50.146Z,16.47
2023-05-06T06:25:51.723Z,16.69
2023-05-06T06:28:53.296Z,17.02
2023-05-06T06:31:58.319Z,17.07
2023-05-06T06:34:59.955Z,17.09
2023-05-06T06:38:01.643Z,17.44
2023-05-06T06:41:03.761Z,17.30
2023-05-06T06:44:06.086Z,17.50
2023-05-06T06:47:07.690Z,17.52
2023-05-06T06:50:09.894Z,17.97
2023-05-06T06:53:11.566Z,18.18
2023-05-06T06:56:13.211Z,17.83
2023-05-06T06:59:14.912Z,18.33
2023-05-06T07:02:16.489Z,18.41
2023-05-06T07:05:18.580Z,18.23
2023-05-06T07:08:21.605Z,18.30
2023-05-06T07:11:23.151Z,18.34
2023-05-06T07:14:25.853Z,18.74
2023-05-06T07:17:27.387Z,19.02
2023-05-06T07:20:28.961Z,18.80
2023-05-06T07:23:32.159Z,18.90
2023-05-06T07:26:37.784Z,19.55
2023-05-06T07:29:39.399Z,19.83
2023-05-06T07:32:41.436Z,19.96
2023-05-06T07:35:43.087Z,19.98
2023-05-06T07:38:45.213Z,20.10
2023-05-06T07:41:46.787Z,19.87
2023-05-06T07:44:48.332Z,20.27
2023-05-06T07:47:50.181Z,20.58
2023-05-06T07:50:51.770Z,20.72
2023-05-06T07:53:53.351Z,20.38
2023-05-06T07:56:54.965Z,20.09
2023-05-06T07:59:58.445Z,20.28
2023-05-06T08:03:00.267Z,20.87
2023-05-06T08:06:02.137Z,21.08
2023-05-06T08:09:03.866Z,20.95
2023-05-06T08:12:05.801Z,21.21
2023-05-06T08:15:08.219Z,21.64
2023-05-06T08:18:20.643Z,21.89
2023-05-06T08:21:23.702Z,21.87
2023-05-06T08:24:25.324Z,22.50
2023-05-06T08:27:26.924Z,22.38
2023-05-06T08:30:28.742Z,23.17
2023-05-06T08:33:30.921Z,22.96
2023-05-06T08:36:32.497Z,22.52
2023-05-06T08:39:34.084Z,22.80
2023-05-06T08:42:36.980Z,22.97
2023-05-06T08:48:41.377Z,23.29
2023-05-06T08:51:44.396Z,23.39
2023-05-06T08:54:48.219Z,23.27
2023-05-06T08:57:53.292Z,22.92
2023-05-06T09:00:54.908Z,23.46
2023-05-06T09:03:58.212Z,23.92
2023-05-06T09:06:59.869Z,24.17
2023-05-06T09:10:12.418Z,23.89
2023-05-06T09:13:16.122Z,22.98
2023-05-06T09:16:30.708Z,23.21
2023-05-06T09:19:32.442Z,23.77
2023-05-06T09:22:34.027Z,23.68
2023-05-06T09:25:36.970Z,23.66
2023-05-06T09:28:38.603Z,23.77
2023-05-06T09:31:42.718Z,23.88
2023-05-06T09:34:46.445Z,23.68
2023-05-06T09:37:48.061Z,23.85
2023-05-06T09:40:49.751Z,24.56
2023-05-06T09:43:56.106Z,24.83
2023-05-06T09:46:58.088Z,25.35
2023-05-06T09:50:00.846Z,24.88
2023-05-06T09:53:05.045Z,25.16
2023-05-06T09:56:07.746Z,25.32
2023-05-06T09:59:11.146Z,26.10
2023-05-06T10:02:15.845Z,26.72
2023-05-06T10:05:18.482Z,26.34
2023-05-06T10:08:23.766Z,26.14
2023-05-06T10:11:26.644Z,26.78
2023-05-06T10:14:28.608Z,27.76
2023-05-06T10:17:32.257Z,28.54
2023-05-06T10:20:38.809Z,27.48
2023-05-06T10:23:49.245Z,27.97
2023-05-06T10:26:54.869Z,27.33
2023-05-06T10:29:59.973Z,28.36
2023-05-06T10:33:07.503Z,28.21
2023-05-06T10:36:27.783Z,28.18
2023-05-06T10:39:29.618Z,28.33
2023-05-06T10:42:35.352Z,26.44
2023-05-06T10:46:13.097Z,25.29
2023-05-06T10:49:14.962Z,27.27
2023-05-06T10:52:17.425Z,26.80
2023-05-06T10:55:29.183Z,28.18
2023-05-06T10:58:36.374Z,27.67
2023-05-06T11:01:40.471Z,26.69
2023-05-06T11:04:42.262Z,25.71
2023-05-06T11:07:43.856Z,25.95
2023-05-06T11:10:45.552Z,25.41
2023-05-06T11:13:52.364Z,25.57
2023-05-06T11:16:54.861Z,25.90
2023-05-06T11:20:18.091Z,25.29
2023-05-06T11:23:19.652Z,25.26
2023-05-06T11:26:21.391Z,24.84
2023-05-06T11:29:23.703Z,26.12
2023-05-06T11:32:29.019Z,26.83
2023-05-06T11:35:37.464Z,26.15
2023-05-06T11:38:52.908Z,25.45
2023-05-06T11:41:54.835Z,25.57
2023-05-06T11:45:02.345Z,25.20
2023-05-06T11:48:04.023Z,25.53
2023-05-06T11:51:05.638Z,24.81
2023-05-06T11:54:10.952Z,24.90
2023-05-06T11:57:13.718Z,24.61
2023-05-06T12:00:15.659Z,24.58
2023-05-06T12:03:18.096Z,24.53
2023-05-06T12:06:31.489Z,24.93
2023-05-06T12:09:34.509Z,25.66
2023-05-06T12:12:36.342Z,27.27
2023-05-06T12:15:38.409Z,27.36
2023-05-06T12:18:40.116Z,28.38
2023-05-06T12:21:41.758Z,26.85
2023-05-06T12:24:43.534Z,27.20
2023-05-06T12:27:45.608Z,28.83
2023-05-06T12:30:47.414Z,27.68
2023-05-06T12:33:50.370Z,26.24
2023-05-06T12:36:52.135Z,26.56
2023-05-06T12:39:57.819Z,27.83
2023-05-06T12:43:00.565Z,26.82
2023-05-06T12:46:09.032Z,26.04
2023-05-06T12:49:10.669Z,25.52
2023-05-06T12:52:12.369Z,25.35
2023-05-06T12:55:13.963Z,25.84
2023-05-06T12:58:16.449Z,25.51
2023-05-06T13:01:18.857Z,25.10
2023-05-06T13:04:23.807Z,24.79
2023-05-06T13:07:25.372Z,24.45
2023-05-06T13:10:26.935Z,24.44
2023-05-06T13:13:31.063Z,24.66
2023-05-06T13:16:32.773Z,25.08
2023-05-06T13:19:34.482Z,25.85
2023-05-06T13:22:50.742Z,26.18
2023-05-06T13:26:04.273Z,26.98
2023-05-06T13:29:07.241Z,29.00
2023-05-06T13:32:09.183Z,29.71
2023-05-06T13:35:11.080Z,29.86
2023-05-06T13:38:12.888Z,27.85
2023-05-06T13:41:14.690Z,26.37
2023-05-06T13:44:17.091Z,25.85
2023-05-06T13:47:18.665Z,25.61
2023-05-06T13:50:20.566Z,25.58
2023-05-06T13:53:22.483Z,26.08
2023-05-06T13:56:24.073Z,25.57
2023-05-06T13:59:25.996Z,24.92
2023-05-06T14:02:28.047Z,25.21
2023-05-06T14:05:29.645Z,24.61
2023-05-06T14:08:32.777Z,24.50
2023-05-06T14:11:34.393Z,24.45
2023-05-06T14:14:35.946Z,24.05
2023-05-06T14:17:38.480Z,24.07
2023-05-06T14:20:40.125Z,24.35
2023-05-06T14:23:41.837Z,24.40
2023-05-06T14:26:45.992Z,24.72
2023-05-06T14:29:47.713Z,25.21
2023-05-06T14:32:49.435Z,24.46
2023-05-06T14:35:52.805Z,23.42
2023-05-06T14:38:54.412Z,23.42
2023-05-06T14:41:56.047Z,24.47
2023-05-06T14:44:57.614Z,24.92
2023-05-06T14:47:59.279Z,24.29
2023-05-06T14:51:00.885Z,23.91
2023-05-06T14:54:02.557Z,23.24
2023-05-06T14:57:04.206Z,23.25
2023-05-06T15:00:09.979Z,22.33
2023-05-06T15:03:11.653Z,22.02
2023-05-06T15:06:13.233Z,21.81
2023-05-06T15:09:14.893Z,21.73
2023-05-06T15:12:16.526Z,21.75
2023-05-06T15:15:18.125Z,21.55
2023-05-06T15:18:19.680Z,21.40
2023-05-06T15:21:21.274Z,21.18
2023-05-06T15:24:23.360Z,21.18
2023-05-06T15:27:24.914Z,21.22
2023-05-06T15:30:26.479Z,20.90
2023-05-06T15:33:34.027Z,20.77
2023-05-06T15:36:35.565Z,20.88
2023-05-06T15:39:39.885Z,20.63
2023-05-06T15:42:41.539Z,20.55
2023-05-06T15:45:43.132Z,20.35
2023-05-06T15:48:45.712Z,20.37
2023-05-06T15:51:47.374Z,20.31
2023-05-06T15:54:49.932Z,20.25
2023-05-06T15:57:53.657Z,20.31
2023-05-06T16:00:55.233Z,20.45
2023-05-06T16:03:56.941Z,20.40
2023-05-06T16:06:58.749Z,20.39
2023-05-06T16:10:00.311Z,20.46
2023-05-06T16:13:01.935Z,20.51
2023-05-06T16:16:03.730Z,20.44
2023-05-06T16:19:05.382Z,20.49
2023-05-06T16:22:13.375Z,20.37
2023-05-06T16:25:14.959Z,20.50
2023-05-06T16:28:16.561Z,20.41
2023-05-06T16:31:18.210Z,20.28
2023-05-06T16:34:19.847Z,20.23
2023-05-06T16:37:21.569Z,20.06
2023-05-06T16:40:24.415Z,20.04
2023-05-06T16:43:26.010Z,20.05
2023-05-06T16:46:28.968Z,19.98
2023-05-06T16:49:30.618Z,19.91
2023-05-06T16:52:32.180Z,19.95
2023-05-06T16:55:34.161Z,19.86
2023-05-06T16:58:35.751Z,19.68
2023-05-06T17:01:37.326Z,19.66
2023-05-06T17:04:38.890Z,19.65
2023-05-06T17:07:40.507Z,19.51
2023-05-06T17:10:43.448Z,19.26
2023-05-06T17:13:45.088Z,19.27
2023-05-06T17:16:47.154Z,19.31
2023-05-06T17:19:48.842Z,19.23
2023-05-06T17:22:50.454Z,19.21
2023-05-06T17:25:52.041Z,19.00
2023-05-06T17:28:53.610Z,19.07
2023-05-06T17:31:55.195Z,18.98
2023-05-06T17:34:56.886Z,18.85
2023-05-06T17:37:58.457Z,18.79
2023-05-06T17:41:00.031Z,18.76
2023-05-06T17:44:01.786Z,18.65
2023-05-06T17:47:03.517Z,18.54
2023-05-06T17:50:05.649Z,18.48
2023-05-06T17:53:07.279Z,18.37
2023-05-06T17:56:08.838Z,18.24
2023-05-06T17:59:11.376Z,18.07
2023-05-06T18:02:15.858Z,17.85
2023-05-06T18:05:17.709Z,17.78
2023-05-06T18:08:19.331Z,17.53
2023-05-06T18:11:21.262Z,17.48
2023-05-06T18:14:22.864Z,17.48
2023-05-06T18:17:24.457Z,17.39
2023-05-06T18:20:26.812Z,17.39
2023-05-06T18:23:29.631Z,17.38
2023-05-06T18:26:43.974Z,17.37
2023-05-06T18:29:46.679Z,17.48
2023-05-06T18:32:50.693Z,17.47
2023-05-06T18:35:53.017Z,17.45
2023-05-06T18:38:54.621Z,17.53
2023-05-06T18:41:56.193Z,17.46
2023-05-06T18:44:58.096Z,17.36
2023-05-06T18:47:59.767Z,17.31
2023-05-06T18:51:12.744Z,17.21
2023-05-06T18:54:15.661Z,17.22
2023-05-06T18:57:19.572Z,17.13
2023-05-06T19:00:22.572Z,17.06
2023-05-06T19:03:24.172Z,16.98
2023-05-06T19:06:25.764Z,16.91
2023-05-06T19:09:27.421Z,16.75
2023-05-06T19:12:30.592Z,16.66
2023-05-06T19:15:32.186Z,16.61
2023-05-06T19:18:33.737Z,16.67
2023-05-06T19:21:35.872Z,16.71
2023-05-06T19:24:37.434Z,16.67
2023-05-06T19:27:39.011Z,16.63
2023-05-06T19:30:40.692Z,16.52
2023-05-06T19:33:42.626Z,16.41
2023-05-06T19:36:44.195Z,16.43
2023-05-06T19:39:46.590Z,16.34
2023-05-06T19:42:48.171Z,16.32
2023-05-06T19:45:49.730Z,16.35
2023-05-06T19:48:51.299Z,16.27
2023-05-06T19:51:52.832Z,16.09
2023-05-06T19:54:54.481Z,16.10
2023-05-06T19:57:56.977Z,15.96
2023-05-06T20:00:59.819Z,16.00
2023-05-06T20:04:01.499Z,15.96
2023-05-06T20:07:03.893Z,15.86
2023-05-06T20:10:06.075Z,15.82
2023-05-06T20:13:07.730Z,15.75
2023-05-06T20:16:09.881Z,15.84
2023-05-06T20:19:11.819Z,15.87
2023-05-06T20:22:13.536Z,15.84
2023-05-06T20:25:17.543Z,15.97
2023-05-06T20:28:19.194Z,15.92
2023-05-06T20:31:20.984Z,15.89
2023-05-06T20:34:22.588Z,15.79
2023-05-06T20:37:24.561Z,15.80
2023-05-06T20:40:26.261Z,15.88
2023-05-06T20:43:27.843Z,15.88
2023-05-06T20:46:29.452Z,15.82
2023-05-06T20:49:31.004Z,15.84
2023-05-06T20:52:33.971Z,15.74
2023-05-06T20:55:35.913Z,15.72
2023-05-06T20:58:37.569Z,15.79
2023-05-06T21:01:39.281Z,15.74
2023-05-06T21:04:41.778Z,15.65
2023-05-06T21:07:43.374Z,15.71
2023-05-06T21:10:45.086Z,15.54
2023-05-06T21:13:48.212Z,15.52
2023-05-06T21:16:52.127Z,15.43
2023-05-06T21:19:53.789Z,15.37
2023-05-06T21:22:55.535Z,15.22
2023-05-06T21:25:59.355Z,15.30
2023-05-06T21:29:00.925Z,15.22
2023-05-06T21:32:02.508Z,15.19
2023-05-06T21:35:04.470Z,15.03
2023-05-06T21:38:06.141Z,15.08
2023-05-06T21:41:08.915Z,14.96
2023-05-06T21:44:10.520Z,14.91
2023-05-06T21:47:12.060Z,14.90
2023-05-06T21:50:13.834Z,15.01
2023-05-06T21:53:15.554Z,15.08
2023-05-06T21:56:21.202Z,15.14
2023-05-06T21:59:22.889Z,15.15
2023-05-06T22:02:24.601Z,15.23
2023-05-06T22:05:26.294Z,15.28
2023-05-06T22:08:29.888Z,15.29
2023-05-06T22:11:31.478Z,15.32
2023-05-06T22:14:40.483Z,15.48
2023-05-06T22:17:42.923Z,15.54
2023-05-06T22:20:44.805Z,15.61
2023-05-06T22:23:46.478Z,15.70
2023-05-06T22:26:48.067Z,15.83
2023-05-06T22:29:49.731Z,15.77
2023-05-06T22:32:51.350Z,15.65
2023-05-06T22:35:53.200Z,15.53
2023-05-06T22:38:55.331Z,15.57
2023-05-06T22:41:57.240Z,15.48
2023-05-06T22:44:58.828Z,15.47
2023-05-06T22:48:00.604Z,15.44
2023-05-06T22:51:03.331Z,15.31
2023-05-06T22:54:05.024Z,15.32
2023-05-06T22:57:06.720Z,15.24
2023-05-06T23:00:10.559Z,15.18
2023-05-06T23:03:12.448Z,15.25
2023-05-06T23:06:14.006Z,15.12
2023-05-06T23:09:15.602Z,15.22
2023-05-06T23:12:17.158Z,15.01
2023-05-06T23:15:18.772Z,15.08
2023-05-06T23:18:20.904Z,14.88
2023-05-06T23:21:22.807Z,14.75
2023-05-06T23:24:24.387Z,14.83
2023-05-06T23:27:26.099Z,14.78
2023-05-06T23:30:27.812Z,14.82
2023-05-06T23:33:29.410Z,14.86
2023-05-06T23:36:31.144Z,14.87
2023-05-06T23:39:32.740Z,14.95
2023-05-06T23:42:34.299Z,14.88
2023-05-06T23:45:35.934Z,14.91
2023-05-06T23:48:37.880Z,14.89
2023-05-06T23:51:39.471Z,14.91
2023-05-06T23:54:41.050Z,14.87
2023-05-06T23:57:42.709Z,14.81
